Terminal Aerodrome Forecast
Issued by NWS

Home | Current Version | Previous Version | Text Only | Print | Product List | Glossary On
Versions: 1 2 3 4 5 6 7 8 9 10 11 12 13 14 15 16 17 18 19 20 21 22 23 24
554
FTUS43 KMQT 221722
TAFSAW
TAF
KSAW 221722Z 2218/2318 00000KT 5SM -DZ BR SCT003 OVC015
      TEMPO 2218/2219 2SM BR BKN003
     FM221900 00000KT 1 1/2SM BR OVC010
     FM222300 00000KT 2SM BR OVC008
     FM230300 00000KT 1SM BR OVC003
     FM230600 00000KT 1/2SM FG OVC002
     FM231600 00000KT 1SM BR OVC003=

USA.gov is the U.S. government's official web portal to all federal, state and local government web resources and services.